Time;durP1;ratioP1;P1;durP2;ratioP2;P2;SDS_P1;SDS_P2;PMS_P1;PMS_P2;Temp;Humidity;BMP_temperature;BMP_pressure;BME280_temperature;BME280_humidity;BME280_pressure;Samples;Min_cycle;Max_cycle;Signal;HPM_P1;HPM_P2
2022/12/15 00:38:53;;;;;;;36.45;16.70;;;-0.70;99.90;;;;;;4975518;28;20046;-82
2022/12/15 00:41:20;;;;;;;39.92;18.40;;;-0.80;99.90;;;;;;4967241;28;20038;-82
2022/12/15 00:43:47;;;;;;;31.67;17.02;;;-0.80;99.90;;;;;;4971397;28;20501;-82
2022/12/15 00:48:59;;;;;;;35.15;16.48;;;-0.90;99.90;;;;;;4968657;28;20047;-82
2022/12/15 01:21:40;;;;;;;35.60;16.50;;;-1.10;99.90;;;;;;4973873;28;20053;-81
2022/12/15 01:24:08;;;;;;;33.42;16.13;;;-1.10;99.90;;;;;;4971871;28;20070;-81
2022/12/15 01:26:35;;;;;;;33.83;17.80;;;-1.10;99.90;;;;;;4980979;28;20057;-83
2022/12/15 01:29:02;;;;;;;40.13;18.42;;;-1.10;99.90;;;;;;4976417;28;20145;-84
2022/12/15 01:31:29;;;;;;;35.28;16.92;;;-1.20;99.90;;;;;;4970072;28;20126;-84
2022/12/15 01:33:56;;;;;;;32.55;17.33;;;-1.20;99.90;;;;;;4973212;28;20451;-84
2022/12/15 01:36:23;;;;;;;33.30;17.27;;;-1.20;99.90;;;;;;4980810;28;20053;-84
2022/12/15 01:38:50;;;;;;;36.80;17.60;;;-1.20;99.90;;;;;;4979020;28;20041;-84
2022/12/15 01:41:17;;;;;;;33.75;17.35;;;-1.20;99.90;;;;;;4971199;28;20037;-83
2022/12/15 01:43:45;;;;;;;35.58;17.75;;;-1.20;99.90;;;;;;4970588;28;20038;-83
2022/12/15 01:46:12;;;;;;;33.30;17.67;;;-1.20;99.90;;;;;;4969665;28;20039;-83
2022/12/15 01:48:43;;;;;;;38.97;18.30;;;-1.20;99.90;;;;;;4970661;28;20045;-83
2022/12/15 01:51:18;;;;;;;40.20;17.90;;;-1.20;99.90;;;;;;4953905;28;20047;-81
2022/12/15 01:53:50;;;;;;;39.80;18.40;;;-1.20;99.90;;;;;;4970986;28;20494;-82
2022/12/15 01:56:19;;;;;;;38.08;17.63;;;-1.20;99.90;;;;;;4950290;28;20050;-82
2022/12/15 01:58:48;;;;;;;35.13;16.80;;;-1.20;99.90;;;;;;4972187;28;20042;-82
2022/12/15 02:01:15;;;;;;;34.65;17.00;;;-1.20;99.90;;;;;;4960218;28;20047;-82
2022/12/15 02:03:43;;;;;;;35.45;17.27;;;-1.10;99.90;;;;;;4970344;28;20073;-82
2022/12/15 02:06:10;;;;;;;34.83;17.42;;;-1.10;99.90;;;;;;4968970;28;20054;-82
2022/12/15 02:08:37;;;;;;;35.58;17.25;;;-1.10;99.90;;;;;;4978755;28;20031;-82
2022/12/15 02:11:26;;;;;;;33.78;18.08;;;-1.10;99.90;;;;;;4969290;28;20050;-82
2022/12/15 02:13:57;;;;;;;31.38;16.70;;;-1.10;99.90;;;;;;4966681;28;20133;-82
2022/12/15 02:16:28;;;;;;;33.42;16.60;;;-1.10;99.90;;;;;;4979638;28;20417;-83
2022/12/15 02:18:59;;;;;;;34.42;16.60;;;-1.10;99.90;;;;;;4952472;28;20790;-82
2022/12/15 02:21:29;;;;;;;37.47;17.48;;;-1.10;99.90;;;;;;4967761;28;20042;-83
2022/12/15 02:24:31;;;;;;;34.93;16.47;;;-1.10;99.90;;;;;;4970633;28;20125;-82
2022/12/15 02:27:20;;;;;;;35.83;17.13;;;-1.10;99.90;;;;;;4943500;28;20320;-82
2022/12/15 02:30:25;;;;;;;33.00;16.50;;;-1.00;99.90;;;;;;4969773;28;20039;-82
2022/12/15 02:33:03;;;;;;;35.47;17.05;;;-1.10;99.90;;;;;;4974540;28;20062;-82
2022/12/15 02:35:34;;;;;;;37.78;18.35;;;-1.10;99.90;;;;;;4978580;28;20053;-82
2022/12/15 02:38:01;;;;;;;;;;;-1.10;99.90;;;;;;4969661;28;20570;-83
2022/12/15 02:40:28;;;;;;;30.95;16.75;;;-1.10;99.90;;;;;;4953288;28;20013;-82
2022/12/15 02:42:58;;;;;;;36.75;17.45;;;-1.10;99.90;;;;;;4980249;28;20039;-82
2022/12/15 02:45:32;;;;;;;35.63;16.20;;;-1.00;99.90;;;;;;4980337;28;20046;-82
2022/12/15 02:48:10;;;;;;;32.20;16.42;;;-1.00;99.90;;;;;;4969259;28;20054;-82
2022/12/15 02:50:51;;;;;;;42.70;19.52;;;-1.00;99.90;;;;;;4971058;28;20049;-83
2022/12/15 02:53:22;;;;;;;;;;;-1.00;99.90;;;;;;4970906;28;20043;-83
2022/12/15 02:55:52;;;;;;;36.40;17.98;;;-1.10;99.90;;;;;;4969103;28;19925;-83
2022/12/15 02:58:27;;;;;;;41.97;18.05;;;-1.10;99.90;;;;;;4970885;28;20495;-83
2022/12/15 03:00:59;;;;;;;34.17;17.92;;;-1.00;99.90;;;;;;4976325;28;20102;-83
2022/12/15 03:03:29;;;;;;;36.70;18.00;;;-1.00;99.90;;;;;;5002366;28;20057;-83
2022/12/15 03:05:57;;;;;;;38.42;18.25;;;-1.00;99.90;;;;;;4993700;28;20035;-83
2022/12/15 03:08:24;;;;;;;34.00;18.08;;;-1.00;99.90;;;;;;4993780;28;20043;-83
2022/12/15 03:10:52;;;;;;;34.78;18.15;;;-1.00;99.90;;;;;;4956613;28;20527;-83
2022/12/15 03:13:22;;;;;;;37.47;18.10;;;-0.90;99.90;;;;;;4964852;28;20110;-83
2022/12/15 03:15:51;;;;;;;37.22;18.15;;;-1.00;99.90;;;;;;4970868;28;20038;-83
2022/12/15 03:18:18;;;;;;;39.83;18.02;;;-0.90;99.90;;;;;;4953591;28;20101;-83
2022/12/15 03:20:46;;;;;;;37.17;17.63;;;-0.90;99.90;;;;;;4970492;28;20057;-83
2022/12/15 03:23:13;;;;;;;41.30;19.38;;;-0.90;99.90;;;;;;4976982;28;20505;-83
2022/12/15 03:25:40;;;;;;;37.15;18.58;;;-0.90;99.90;;;;;;4977114;28;20062;-83
2022/12/15 03:28:07;;;;;;;37.72;18.65;;;-0.90;99.90;;;;;;4953665;28;20054;-83
2022/12/15 03:30:34;;;;;;;37.67;19.40;;;-0.90;99.90;;;;;;4970804;28;20840;-83
2022/12/15 03:33:01;;;;;;;42.45;20.02;;;-0.90;99.90;;;;;;4973815;28;20045;-83
2022/12/15 03:35:28;;;;;;;38.88;19.42;;;-0.90;99.90;;;;;;5020285;23;20670;-90
2022/12/15 03:37:56;;;;;;;42.72;20.30;;;-0.90;99.90;;;;;;5007705;28;20042;-89
2022/12/15 03:40:23;;;;;;;35.13;18.60;;;-0.90;99.90;;;;;;5008533;28;20120;-89
2022/12/15 03:42:50;;;;;;;42.20;18.73;;;-0.90;99.90;;;;;;5006287;28;20053;-89
2022/12/15 03:45:18;;;;;;;40.83;18.90;;;-0.90;99.90;;;;;;5008773;28;20075;-89
2022/12/15 03:47:45;;;;;;;42.85;19.45;;;-0.80;99.90;;;;;;5014930;28;20505;-89
2022/12/15 03:50:14;;;;;;;43.83;20.55;;;-0.80;99.90;;;;;;5011491;28;20034;-89
2022/12/15 03:52:42;;;;;;;42.45;20.27;;;-0.70;99.90;;;;;;5006516;28;20050;-89
2022/12/15 03:55:11;;;;;;;47.05;21.40;;;-0.80;99.90;;;;;;5008785;28;20038;-89
2022/12/15 03:57:38;;;;;;;44.33;20.63;;;-0.80;99.90;;;;;;5008479;28;20050;-90
2022/12/15 04:00:07;;;;;;;47.53;20.63;;;-0.70;99.90;;;;;;4990126;28;20042;-90
2022/12/15 04:02:39;;;;;;;40.33;19.90;;;-0.70;99.90;;;;;;5006225;28;20792;-89
2022/12/15 04:05:07;;;;;;;43.03;20.17;;;-0.70;99.90;;;;;;5011603;28;20117;-90
2022/12/15 04:07:34;;;;;;;42.92;21.52;;;-0.70;99.90;;;;;;5006321;28;20046;-88
2022/12/15 04:10:00;;;;;;;42.13;19.95;;;-0.70;99.90;;;;;;5006809;28;20085;-90
2022/12/15 04:12:29;;;;;;;44.78;21.00;;;-0.60;99.90;;;;;;5007572;28;20048;-89
2022/12/15 04:14:56;;;;;;;44.70;19.95;;;-0.60;99.90;;;;;;5008347;28;20046;-88
2022/12/15 04:17:22;;;;;;;40.63;20.27;;;-0.70;99.90;;;;;;5006572;28;20054;-89
2022/12/15 04:22:34;;;;;;;41.03;19.73;;;-0.70;99.90;;;;;;5012135;28;20402;-90
2022/12/15 05:33:55;;;;;;;39.55;20.35;;;-0.60;99.90;;;;;;5008636;28;20048;-90
2022/12/15 05:36:22;;;;;;;43.80;20.20;;;-0.60;99.90;;;;;;4993891;28;20084;-90
2022/12/15 05:38:49;;;;;;;42.08;20.25;;;-0.60;99.90;;;;;;5011393;28;20493;-87
2022/12/15 05:41:17;;;;;;;38.30;20.27;;;-0.60;99.90;;;;;;4994100;28;20642;-87
2022/12/15 05:43:44;;;;;;;39.45;20.58;;;-0.50;99.90;;;;;;4992139;28;20148;-88
2022/12/15 05:46:11;;;;;;;42.83;20.52;;;-0.50;99.90;;;;;;5009994;28;20119;-88
2022/12/15 05:48:45;;;;;;;38.95;19.85;;;-0.50;99.90;;;;;;5010282;28;20867;-88
2022/12/15 05:51:14;;;;;;;42.40;20.60;;;-0.50;99.90;;;;;;5008453;28;20038;-88
2022/12/15 05:53:41;;;;;;;41.53;19.75;;;-0.50;99.90;;;;;;5006646;28;20048;-89
2022/12/15 05:56:10;;;;;;;39.22;19.35;;;-0.50;99.90;;;;;;4992425;28;20050;-88
2022/12/15 05:58:38;;;;;;;40.70;20.50;;;-0.50;99.90;;;;;;5011786;28;20069;-88
2022/12/15 06:01:06;;;;;;;44.70;19.83;;;-0.50;99.90;;;;;;4995603;28;20046;-86
2022/12/15 06:03:33;;;;;;;41.15;20.73;;;-0.50;99.90;;;;;;5008599;28;20042;-84
2022/12/15 06:06:01;;;;;;;39.67;19.73;;;-0.40;99.90;;;;;;5010929;28;20494;-88
2022/12/15 06:08:31;;;;;;;38.38;19.65;;;-0.50;99.90;;;;;;4993103;28;20532;-92
2022/12/15 06:10:58;;;;;;;39.83;19.38;;;-0.50;99.90;;;;;;5008678;28;20040;-91
2022/12/15 06:13:26;;;;;;;44.13;20.38;;;-0.50;99.90;;;;;;5003839;28;20425;-91
2022/12/15 06:15:57;;;;;;;38.90;20.08;;;-0.50;99.90;;;;;;5000195;28;20037;-90
2022/12/15 06:18:26;;;;;;;39.80;18.48;;;-0.50;99.90;;;;;;4992240;28;20422;-91
2022/12/15 06:21:01;;;;;;;45.25;20.52;;;-0.50;99.90;;;;;;4994645;28;20050;-91
2022/12/15 06:23:32;;;;;;;39.45;18.48;;;-0.50;99.90;;;;;;4995453;28;20509;-87
2022/12/15 06:26:00;;;;;;;37.22;18.50;;;-0.50;99.90;;;;;;5009996;28;20132;-83
2022/12/15 06:28:28;;;;;;;41.50;19.33;;;-0.50;99.90;;;;;;5008537;28;20654;-82
2022/12/15 06:30:56;;;;;;;43.15;19.77;;;-0.50;99.90;;;;;;5002106;28;20077;-87
2022/12/15 06:33:23;;;;;;;42.08;20.33;;;-0.50;99.90;;;;;;5008977;28;20061;-85
2022/12/15 06:35:51;;;;;;;41.22;20.08;;;-0.50;99.90;;;;;;4992194;28;20072;-84
2022/12/15 06:38:18;;;;;;;38.10;18.25;;;-0.50;99.90;;;;;;5009186;28;20048;-82
2022/12/15 06:40:55;;;;;;;46.80;19.60;;;-0.50;99.90;;;;;;5006831;28;20045;-84
2022/12/15 06:43:22;;;;;;;35.83;18.88;;;-0.50;99.90;;;;;;5009111;28;20052;-81
2022/12/15 06:45:49;;;;;;;38.97;18.63;;;-0.50;99.90;;;;;;5008832;28;20660;-81
2022/12/15 06:48:16;;;;;;;39.47;19.40;;;-0.50;99.90;;;;;;4995819;28;20049;-81
2022/12/15 06:50:44;;;;;;;42.88;19.88;;;-0.50;99.90;;;;;;5011936;28;20433;-81
2022/12/15 06:53:11;;;;;;;41.47;20.23;;;-0.50;99.90;;;;;;5005020;28;20038;-81
2022/12/15 06:55:38;;;;;;;37.60;19.30;;;-0.50;99.90;;;;;;5008837;28;20410;-81
2022/12/15 06:58:06;;;;;;;44.75;20.25;;;-0.40;99.90;;;;;;5009125;28;20569;-82
2022/12/15 07:00:35;;;;;;;38.53;18.63;;;-0.40;99.90;;;;;;5003341;28;20068;-81
2022/12/15 07:03:02;;;;;;;39.75;20.60;;;-0.40;99.90;;;;;;5006811;28;20038;-81
2022/12/15 07:05:29;;;;;;;39.70;18.65;;;-0.40;99.90;;;;;;5005961;28;20066;-81
2022/12/15 07:07:56;;;;;;;42.10;21.25;;;-0.40;99.90;;;;;;4991524;28;20054;-80
2022/12/15 07:10:23;;;;;;;40.42;20.05;;;-0.40;99.90;;;;;;5009238;28;20069;-81
2022/12/15 07:12:50;;;;;;;41.05;20.20;;;-0.40;99.90;;;;;;5000977;28;20048;-80
2022/12/15 07:15:18;;;;;;;42.33;20.58;;;-0.40;99.90;;;;;;5007730;28;20041;-80
2022/12/15 07:17:45;;;;;;;38.88;19.08;;;-0.40;99.90;;;;;;5008154;28;20052;-81
2022/12/15 07:20:12;;;;;;;40.53;19.65;;;-0.20;99.90;;;;;;4990529;28;20081;-81
2022/12/15 07:22:39;;;;;;;39.85;19.42;;;-0.40;99.90;;;;;;5007871;28;20459;-81
2022/12/15 07:25:08;;;;;;;42.92;20.45;;;-0.40;99.90;;;;;;5008667;28;20046;-80
2022/12/15 07:27:35;;;;;;;48.45;21.40;;;-0.40;99.90;;;;;;4990255;28;20064;-81
2022/12/15 07:30:02;;;;;;;46.70;20.73;;;-0.40;99.90;;;;;;5011230;28;20478;-80
2022/12/15 07:32:30;;;;;;;43.03;21.17;;;-0.40;99.90;;;;;;4987956;28;20038;-80
2022/12/15 07:34:57;;;;;;;42.80;20.13;;;-0.40;99.90;;;;;;5008976;28;20061;-80
2022/12/15 07:37:24;;;;;;;41.15;19.63;;;-0.40;99.90;;;;;;5004754;28;20050;-81
2022/12/15 07:39:51;;;;;;;39.55;19.42;;;-0.40;99.90;;;;;;5006105;28;20049;-81
2022/12/15 07:42:18;;;;;;;46.85;21.73;;;-0.30;99.90;;;;;;5007292;28;20045;-81
2022/12/15 07:44:45;;;;;;;42.65;20.40;;;-0.40;99.90;;;;;;5007131;28;20122;-80
2022/12/15 07:47:12;;;;;;;44.90;21.60;;;-0.30;99.90;;;;;;5003864;28;20043;-81
2022/12/15 07:49:40;;;;;;;45.20;20.63;;;-0.30;99.90;;;;;;5017724;28;20076;-81
2022/12/15 07:52:07;;;;;;;47.35;20.77;;;-0.30;99.90;;;;;;5005275;28;20496;-81
2022/12/15 07:54:35;;;;;;;41.90;20.38;;;-0.30;99.90;;;;;;5008118;28;20049;-81
2022/12/15 07:57:03;;;;;;;40.85;20.05;;;-0.30;99.90;;;;;;5008292;28;20038;-82
2022/12/15 07:59:30;;;;;;;43.30;21.50;;;-0.30;99.90;;;;;;5008069;28;20050;-84
2022/12/15 08:01:59;;;;;;;41.72;20.35;;;-0.30;99.90;;;;;;5003653;28;20046;-84
2022/12/15 08:04:26;;;;;;;41.50;20.35;;;-0.30;99.90;;;;;;5007890;28;20046;-83
2022/12/15 08:06:55;;;;;;;42.72;21.17;;;-0.30;99.90;;;;;;5015142;28;20520;-84
2022/12/15 08:09:22;;;;;;;45.42;20.65;;;-0.30;99.90;;;;;;5007168;28;20118;-84
2022/12/15 08:11:49;;;;;;;45.17;20.65;;;-0.30;99.90;;;;;;5006403;28;20103;-83
2022/12/15 08:14:16;;;;;;;43.92;20.90;;;-0.30;99.90;;;;;;5008629;28;20077;-83
2022/12/15 08:16:44;;;;;;;41.20;19.30;;;-0.30;99.90;;;;;;4990133;28;20595;-84
2022/12/15 08:19:11;;;;;;;45.65;20.75;;;-0.20;99.90;;;;;;5008527;28;20045;-83
2022/12/15 08:21:39;;;;;;;45.00;22.38;;;-0.30;99.90;;;;;;5009220;28;20125;-84
2022/12/15 08:24:08;;;;;;;43.60;21.02;;;-0.30;99.90;;;;;;5012089;28;20092;-84
2022/12/15 08:26:36;;;;;;;42.95;20.85;;;-0.30;99.90;;;;;;5011800;28;20569;-83
2022/12/15 08:29:06;;;;;;;48.63;20.58;;;-0.20;99.90;;;;;;5011186;28;20042;-83
2022/12/15 08:31:34;;;;;;;42.10;21.20;;;-0.20;99.90;;;;;;5010118;28;20057;-83
2022/12/15 08:34:01;;;;;;;46.60;20.88;;;-0.20;99.90;;;;;;5011701;28;20041;-84
2022/12/15 08:36:29;;;;;;;40.25;20.23;;;-0.20;99.90;;;;;;5016310;28;20038;-83
2022/12/15 08:38:56;;;;;;;46.17;21.42;;;-0.20;99.90;;;;;;5011443;28;20046;-83
2022/12/15 08:41:27;;;;;;;45.10;21.77;;;-0.20;99.90;;;;;;5009742;28;20069;-83
2022/12/15 08:43:54;;;;;;;47.50;23.20;;;-0.20;99.90;;;;;;4994225;28;20057;-84
2022/12/15 08:46:23;;;;;;;50.17;21.85;;;-0.20;99.90;;;;;;5011463;28;20127;-83
2022/12/15 08:48:51;;;;;;;52.53;21.92;;;-0.20;99.90;;;;;;5011640;28;20490;-84
2022/12/15 08:51:19;;;;;;;52.63;23.67;;;-0.10;99.90;;;;;;5009469;28;20034;-82
2022/12/15 08:53:46;;;;;;;41.70;20.40;;;-0.10;99.90;;;;;;5007920;28;20048;-84
2022/12/15 08:56:16;;;;;;;53.80;22.30;;;-0.10;99.90;;;;;;5014671;28;20045;-87
2022/12/15 08:58:44;;;;;;;47.38;22.45;;;-0.10;99.90;;;;;;5005095;28;20042;-85
2022/12/15 09:01:13;;;;;;;54.95;23.13;;;-0.10;99.90;;;;;;5006824;28;20074;-85
2022/12/15 09:03:40;;;;;;;48.13;22.70;;;-0.10;99.90;;;;;;5008900;28;20155;-84
2022/12/15 09:06:09;;;;;;;54.63;23.50;;;-0.10;99.90;;;;;;5010388;28;20042;-85
2022/12/15 09:08:35;;;;;;;58.45;23.45;;;-0.10;99.90;;;;;;5009766;28;20045;-85
2022/12/15 09:11:04;;;;;;;53.03;22.70;;;-0.10;99.90;;;;;;5012382;28;20402;-85
2022/12/15 09:13:31;;;;;;;52.00;23.65;;;-0.10;99.90;;;;;;4996714;28;20057;-85
2022/12/15 09:16:01;;;;;;;54.13;22.98;;;-0.10;99.90;;;;;;5011242;28;20042;-85
2022/12/15 09:18:28;;;;;;;54.75;24.85;;;0.00;99.90;;;;;;5010814;28;20125;-84
2022/12/15 09:20:55;;;;;;;58.10;24.92;;;0.00;99.90;;;;;;4992456;28;20042;-85
2022/12/15 09:23:22;;;;;;;55.72;24.15;;;0.00;99.90;;;;;;5008345;28;20037;-84
2022/12/15 09:25:50;;;;;;;63.60;24.77;;;0.00;99.90;;;;;;5015640;28;20119;-85
2022/12/15 09:28:17;;;;;;;59.70;24.45;;;0.10;99.90;;;;;;5023624;28;20045;-85
2022/12/15 09:30:44;;;;;;;57.45;24.58;;;0.10;99.90;;;;;;5007361;28;20125;-86
2022/12/15 09:33:12;;;;;;;57.42;24.17;;;0.20;99.90;;;;;;5008003;28;20404;-82
2022/12/15 09:35:39;;;;;;;51.78;24.25;;;0.10;99.90;;;;;;5026219;23;20042;-85
2022/12/15 09:38:06;;;;;;;57.92;24.15;;;0.10;99.90;;;;;;5002832;28;20052;-85
2022/12/15 09:40:33;;;;;;;61.10;24.63;;;0.20;99.90;;;;;;5009568;28;20072;-85
2022/12/15 09:43:00;;;;;;;58.65;24.35;;;0.20;99.90;;;;;;5009882;28;20057;-84
2022/12/15 09:45:34;;;;;;;62.33;25.42;;;0.20;99.90;;;;;;5013556;28;20068;-83
2022/12/15 09:48:04;;;;;;;58.70;25.50;;;0.20;99.90;;;;;;5010325;28;20157;-84
2022/12/15 09:50:37;;;;;;;52.15;24.33;;;0.30;99.90;;;;;;4998993;28;20046;-84
2022/12/15 09:53:06;;;;;;;64.18;26.15;;;0.30;99.90;;;;;;5007664;28;20528;-84
2022/12/15 09:55:35;;;;;;;57.85;26.45;;;0.30;99.90;;;;;;5014499;28;20042;-84
2022/12/15 09:58:16;;;;;;;61.88;27.30;;;0.30;99.90;;;;;;5014493;28;20053;-82
2022/12/15 10:00:54;;;;;;;67.75;27.85;;;0.30;99.90;;;;;;5020804;28;20214;-82
2022/12/15 10:03:35;;;;;;;70.22;29.70;;;0.40;99.90;;;;;;4996830;28;20176;-83
2022/12/15 10:06:09;;;;;;;67.10;28.60;;;0.40;99.90;;;;;;5014214;28;20058;-83
2022/12/15 10:08:39;;;;;;;64.18;26.48;;;0.40;99.90;;;;;;5012120;28;20044;-82
2022/12/15 10:11:18;;;;;;;63.88;29.13;;;0.40;99.90;;;;;;5007998;28;20180;-82
2022/12/15 10:13:51;;;;;;;70.80;28.92;;;0.40;99.90;;;;;;5012734;28;20124;-85
2022/12/15 10:16:22;;;;;;;65.80;28.73;;;0.50;99.90;;;;;;5010462;28;20057;-92
2022/12/15 10:19:08;;;;;;;69.28;30.83;;;0.50;99.90;;;;;;4991437;28;20802;-88
2022/12/15 10:21:36;;;;;;;79.00;34.13;;;0.50;99.90;;;;;;5009181;28;20081;-89
2022/12/15 10:24:16;;;;;;;106.50;43.30;;;0.60;99.90;;;;;;4990553;28;20133;-88
2022/12/15 10:26:49;;;;;;;98.47;41.95;;;0.60;99.90;;;;;;5005013;28;20048;-90
2022/12/15 10:29:26;;;;;;;83.95;39.78;;;0.60;99.90;;;;;;5004068;28;20117;-90
2022/12/15 10:31:55;;;;;;;84.72;36.72;;;0.70;99.90;;;;;;5007876;28;20516;-90
2022/12/15 10:34:28;;;;;;;75.60;34.80;;;0.70;99.90;;;;;;5009596;28;20120;-90
2022/12/15 10:36:57;;;;;;;82.28;38.95;;;0.70;99.90;;;;;;5005298;28;20038;-90
2022/12/15 10:39:36;;;;;;;77.15;34.97;;;0.70;99.90;;;;;;5010935;28;20099;-90
2022/12/15 10:42:21;;;;;;;78.47;34.53;;;0.70;99.90;;;;;;4992469;28;20506;-89
2022/12/15 10:44:50;;;;;;;70.60;31.52;;;0.80;99.90;;;;;;5004668;28;20048;-88
2022/12/15 10:47:22;;;;;;;78.57;34.05;;;0.80;99.90;;;;;;5009094;28;20053;-89
2022/12/15 10:49:50;;;;;;;72.97;33.15;;;0.80;99.90;;;;;;5009898;28;20152;-90
2022/12/15 10:52:34;;;;;;;72.15;31.70;;;0.90;99.90;;;;;;5009928;28;20692;-90
2022/12/15 10:55:01;;;;;;;79.15;33.20;;;0.90;99.90;;;;;;5005675;28;20038;-90
2022/12/15 10:57:30;;;;;;;67.68;31.77;;;0.90;99.90;;;;;;4991263;28;20069;-90
2022/12/15 11:00:26;;;;;;;66.47;30.13;;;0.90;99.90;;;;;;5005691;28;20132;-87
2022/12/15 11:02:53;;;;;;;66.00;31.58;;;0.90;99.90;;;;;;5009399;28;20057;-88
2022/12/15 11:05:20;;;;;;;78.35;31.65;;;1.00;99.90;;;;;;5009488;28;20141;-90
2022/12/15 11:07:50;;;;;;;71.93;33.50;;;1.00;99.90;;;;;;4991675;28;20052;-91
2022/12/15 11:10:21;;;;;;;72.78;32.42;;;1.00;99.90;;;;;;5007923;28;20073;-89
2022/12/15 11:12:56;;;;;;;68.57;32.38;;;1.00;99.90;;;;;;5009961;28;20439;-93
2022/12/15 11:15:44;;;;;;;69.10;32.35;;;1.00;99.90;;;;;;5009202;28;20038;-93
2022/12/15 11:18:31;;;;;;;70.20;32.72;;;1.10;99.90;;;;;;5009767;28;20077;-91
2022/12/15 11:21:02;;;;;;;68.32;31.63;;;1.10;99.90;;;;;;4992338;28;20056;-91
2022/12/15 11:23:45;;;;;;;69.57;31.13;;;1.10;99.90;;;;;;4988076;28;20444;-91
2022/12/15 11:26:24;;;;;;;71.88;33.00;;;1.10;99.90;;;;;;5013984;28;20659;-92
2022/12/15 11:28:55;;;;;;;65.57;32.30;;;1.20;99.90;;;;;;5029859;28;20045;-93
2022/12/15 11:31:27;;;;;;;68.97;31.50;;;1.20;99.90;;;;;;5030167;28;20103;-91
2022/12/15 11:33:55;;;;;;;70.15;32.42;;;1.20;99.90;;;;;;5031437;28;20049;-92
2022/12/15 11:36:49;;;;;;;72.22;33.05;;;1.20;99.90;;;;;;5012205;28;20523;-91
2022/12/15 11:39:29;;;;;;;72.05;33.67;;;1.20;99.90;;;;;;4999942;28;20596;-86
2022/12/15 11:42:01;;;;;;;76.65;35.78;;;1.30;99.90;;;;;;5008811;28;20466;-87
2022/12/15 11:44:35;;;;;;;71.05;32.03;;;1.30;99.90;;;;;;5021623;28;20042;-87
2022/12/15 11:47:08;;;;;;;77.95;36.38;;;1.40;99.90;;;;;;4992543;28;20108;-88
2022/12/15 11:50:03;;;;;;;81.78;38.78;;;1.30;99.90;;;;;;5006431;28;20064;-88
2022/12/15 11:52:54;;;;;;;79.72;36.58;;;1.30;99.90;;;;;;5017560;28;20040;-88
2022/12/15 11:55:27;;;;;;;78.70;35.40;;;1.30;99.90;;;;;;5011864;28;20049;-87
2022/12/15 11:58:13;;;;;;;73.50;35.33;;;1.40;99.90;;;;;;5011313;28;20052;-89
2022/12/15 12:00:43;;;;;;;76.50;34.03;;;1.40;99.90;;;;;;5012462;28;20458;-88
2022/12/15 12:03:19;;;;;;;72.60;33.05;;;1.40;99.90;;;;;;5013506;28;20038;-89
2022/12/15 12:06:16;;;;;;;69.80;34.67;;;1.40;99.90;;;;;;5013322;28;20046;-88
2022/12/15 12:08:56;;;;;;;73.65;33.10;;;1.50;99.90;;;;;;4995404;28;20518;-89
2022/12/15 12:11:28;;;;;;;71.53;32.13;;;1.50;99.90;;;;;;4995194;28;20046;-89
2022/12/15 12:14:18;;;;;;;70.88;32.40;;;1.50;99.90;;;;;;4997505;28;20346;-88
2022/12/15 12:16:51;;;;;;;66.28;32.50;;;1.50;99.90;;;;;;5016630;28;20117;-89
2022/12/15 12:19:22;;;;;;;68.28;31.67;;;1.50;99.90;;;;;;5014111;28;20322;-91
2022/12/15 12:21:50;;;;;;;75.78;34.60;;;1.50;99.90;;;;;;5013485;28;20050;-92
2022/12/15 12:24:23;;;;;;;69.43;32.80;;;1.60;99.90;;;;;;4997418;28;20058;-93
2022/12/15 12:26:55;;;;;;;73.75;33.42;;;1.60;99.90;;;;;;4996382;28;20042;-89
2022/12/15 12:29:25;;;;;;;75.07;34.53;;;1.60;99.90;;;;;;4995678;28;20149;-92
2022/12/15 12:32:04;;;;;;;79.05;33.67;;;1.60;99.90;;;;;;4993781;28;20042;-91
2022/12/15 12:34:41;;;;;;;74.05;35.03;;;1.60;99.90;;;;;;4992668;28;20157;-90
2022/12/15 12:37:16;;;;;;;77.00;34.20;;;1.60;99.90;;;;;;5011294;28;20049;-91
2022/12/15 12:39:44;;;;;;;79.10;35.00;;;1.60;99.90;;;;;;5012736;28;20053;-88
2022/12/15 12:42:17;;;;;;;74.40;35.38;;;1.60;99.90;;;;;;4994678;28;20069;-92
2022/12/15 12:44:44;;;;;;;75.22;34.75;;;1.70;99.90;;;;;;5011959;28;20494;-92
2022/12/15 12:47:15;;;;;;;76.25;35.60;;;1.70;99.90;;;;;;4999789;28;20050;-91
2022/12/15 12:49:45;;;;;;;75.97;35.40;;;1.70;99.90;;;;;;5004855;28;20046;-92
2022/12/15 12:52:22;;;;;;;75.78;35.42;;;1.70;99.90;;;;;;4994875;28;20789;-88
2022/12/15 12:55:00;;;;;;;74.00;35.25;;;1.70;99.90;;;;;;4994508;28;20426;-87
2022/12/15 12:57:35;;;;;;;77.22;35.17;;;1.70;99.90;;;;;;4994999;28;20053;-89
2022/12/15 13:00:20;;;;;;;76.82;34.83;;;1.70;99.90;;;;;;4993977;28;20140;-88
2022/12/15 13:03:17;;;;;;;72.88;34.63;;;1.70;99.90;;;;;;5005961;28;20042;-88
2022/12/15 13:05:49;;;;;;;72.70;34.50;;;1.80;99.90;;;;;;5004532;28;20560;-89
2022/12/15 13:08:22;;;;;;;74.55;34.58;;;1.70;99.90;;;;;;5014214;28;20045;-87
2022/12/15 13:10:49;;;;;;;73.78;32.58;;;1.80;99.90;;;;;;5014542;28;20144;-88
2022/12/15 13:13:40;;;;;;;72.18;32.97;;;1.70;99.90;;;;;;5012874;28;20041;-88
2022/12/15 13:16:11;;;;;;;68.55;32.55;;;1.80;99.90;;;;;;4993403;28;20045;-85
2022/12/15 13:18:57;;;;;;;72.47;33.40;;;1.80;99.90;;;;;;4987031;28;20177;-87
2022/12/15 13:21:55;;;;;;;70.13;32.45;;;1.80;99.90;;;;;;5009667;28;20877;-90
2022/12/15 13:24:33;;;;;;;69.95;31.80;;;1.80;99.90;;;;;;4990432;28;20081;-91
2022/12/15 13:27:14;;;;;;;72.75;32.33;;;1.80;99.90;;;;;;4990534;28;20457;-92
2022/12/15 13:29:59;;;;;;;71.22;32.88;;;1.80;99.90;;;;;;5020632;28;20045;-91
2022/12/15 13:32:32;;;;;;;66.72;31.73;;;1.80;99.90;;;;;;4991601;28;20062;-92
2022/12/15 13:35:24;;;;;;;68.25;31.02;;;1.80;99.90;;;;;;4982445;28;20497;-90
2022/12/15 13:38:08;;;;;;;67.05;31.65;;;1.80;99.90;;;;;;5016567;28;20041;-91
2022/12/15 13:40:56;;;;;;;65.97;30.77;;;1.80;99.90;;;;;;5019065;28;20068;-91
2022/12/15 13:43:51;;;;;;;63.85;30.90;;;1.80;99.90;;;;;;4994928;28;20054;-92
2022/12/15 13:49:20;;;;;;;64.05;29.55;;;1.80;99.90;;;;;;5016537;28;20094;-91
2022/12/15 13:51:48;;;;;;;60.58;29.00;;;1.90;99.90;;;;;;4995395;28;20104;-92
2022/12/15 13:54:20;;;;;;;67.75;30.95;;;1.90;99.90;;;;;;5000340;28;20680;-92
2022/12/15 13:56:54;;;;;;;64.68;29.70;;;1.90;99.90;;;;;;4993004;28;20429;-92
2022/12/15 13:59:36;;;;;;;60.78;27.92;;;1.90;99.90;;;;;;4992095;28;22155;-90
2022/12/15 14:02:20;;;;;;;;;;;1.90;99.90;;;;;;5010206;28;20045;-92
2022/12/15 14:05:06;;;;;;;62.33;27.77;;;1.90;99.90;;;;;;4992432;28;19929;-92
2022/12/15 14:07:34;;;;;;;61.17;28.60;;;1.90;99.90;;;;;;5009234;28;20498;-91
2022/12/15 14:10:01;;;;;;;61.75;28.35;;;1.90;99.90;;;;;;5013574;28;20069;-92
2022/12/15 14:12:29;;;;;;;62.40;28.17;;;1.90;99.90;;;;;;5011673;28;20072;-91
2022/12/15 14:14:56;;;;;;;60.38;28.70;;;1.90;99.90;;;;;;5021194;28;20096;-87
2022/12/15 14:17:27;;;;;;;63.05;29.52;;;1.90;99.90;;;;;;5017441;28;20132;-91
2022/12/15 14:19:54;;;;;;;60.80;29.65;;;1.90;99.90;;;;;;4988504;28;20054;-88
2022/12/15 14:22:27;;;;;;;64.53;29.92;;;1.90;99.90;;;;;;5010836;28;20034;-89
2022/12/15 14:25:00;;;;;;;62.28;30.63;;;1.90;99.90;;;;;;5010740;28;20128;-84
2022/12/15 14:27:29;;;;;;;55.78;27.55;;;1.80;99.90;;;;;;5010948;28;20494;-93
2022/12/15 14:30:16;;;;;;;59.92;28.63;;;1.80;99.90;;;;;;4995854;28;20062;-93
2022/12/15 14:32:46;;;;;;;60.58;28.25;;;1.80;99.90;;;;;;4986422;28;20056;-92
2022/12/15 14:35:15;;;;;;;59.92;28.92;;;1.80;99.90;;;;;;4991824;28;20120;-93
2022/12/15 14:37:42;;;;;;;57.78;28.75;;;1.80;99.90;;;;;;4991602;28;20050;-93
2022/12/15 14:40:14;;;;;;;61.13;29.10;;;1.80;99.90;;;;;;4991954;28;20046;-92
2022/12/15 14:42:42;;;;;;;58.10;28.38;;;1.80;99.90;;;;;;4991307;28;20457;-93
2022/12/15 14:45:19;;;;;;;59.90;28.00;;;1.80;99.90;;;;;;4987253;28;20038;-93
2022/12/15 15:29:53;;;;;;;59.80;27.73;;;1.60;99.90;;;;;;4785029;29;20100;-91
2022/12/15 15:32:23;;;;;;;54.20;27.27;;;1.60;99.90;;;;;;4806496;29;20085;-91
2022/12/15 15:34:51;;;;;;;56.63;26.75;;;1.60;99.90;;;;;;4934485;23;20148;-84
2022/12/15 15:37:19;;;;;;;54.65;27.10;;;1.60;99.90;;;;;;5003316;28;20083;-84
2022/12/15 15:39:48;;;;;;;56.95;26.02;;;1.50;99.90;;;;;;5000351;28;20046;-91
2022/12/15 15:42:15;;;;;;;59.47;28.50;;;1.60;99.90;;;;;;4988608;28;20057;-90
2022/12/15 15:44:42;;;;;;;60.65;27.55;;;1.70;99.90;;;;;;5006533;28;20049;-84
2022/12/15 15:47:19;;;;;;;60.35;28.45;;;1.50;99.90;;;;;;5007806;28;20395;-85
2022/12/15 15:49:46;;;;;;;59.33;27.17;;;1.50;99.90;;;;;;5006865;28;20041;-89
2022/12/15 15:52:13;;;;;;;61.60;27.60;;;1.50;99.90;;;;;;5005900;28;20524;-88
2022/12/15 15:54:41;;;;;;;64.45;28.63;;;1.50;99.90;;;;;;4986944;28;20057;-84
2022/12/15 15:57:13;;;;;;;63.28;28.98;;;1.40;99.90;;;;;;5003339;28;20054;-91
2022/12/15 15:59:43;;;;;;;60.95;28.35;;;1.50;99.90;;;;;;5010333;28;20107;-94
2022/12/15 16:02:12;;;;;;;64.32;29.23;;;1.40;99.90;;;;;;5005976;28;20529;-86